메인 페이지
METAR-TAF:

METAR-TAF

공항 :

콜럼버스, 조지아, 미국

위도: 32-30-58N, 경도: 084-56-32W, 고도: 121m

현재 날씨관측

예보는 10분 전, 11:51시(UTC)에 발표되었습니다.
무풍
온도 19°C
습도 94%
기압 1017 hPa
시정: 8.0km
고도 900ft 상공 구름 많음
박무

METAR: KCSG 201151Z AUTO 00000KT 5SM BR BKN009 19/18 A3003 RMK AO2 SLP166 60014 70014 T01890183 10189 20178 56002

시각: 08:01 (12:01 UTC)

예보

예보는 20분 전, 11:41시(UTC)에 발표되었습니다.
예보 대상 시간: 20일 12시부터 21일 12시까지 (UTC)
남남서4kt
시정: 10km
고도 8000ft 상공 구름 많음
20일 1600시부터 (UTC)
서북서7kt
시정: 10km
고도 3500ft 상공 구름 많음
시계 내 소나기
일시적
20일 18시부터 20일 21시까지 (UTC)
시정: 9.7km
고도 2500ft 상공 구름 많음, 적란운.
뇌우, 약한비
20일 2100시부터 (UTC)
서북서9kt
시정: 10km
고도 4000ft 상공 구름 보통
고도 10000ft 상공 구름 보통
21일 0100시부터 (UTC)
북북서11kt, 순간 최대 풍속 20kt
시정: 10km
맑음

TAF: KCSG 201141Z 2012/2112 21004KT P6SM BKN080 FM201600 29007KT P6SM VCSH BKN035 TEMPO 2018/2021 6SM -TSRA BKN025CB FM202100 30009KT P6SM SCT040 SCT100 FM210100 33011G20KT P6SM SKC

4,000개 이상의 공항 관측 자료 및 예보 (METAR 및 TAF 보고).

지도상에서 검색 가능한 기상관측소가 노란 점과 빨간 점으로 표시되어 있습니다.

기상관측소 명을 보려면 표시 위로 마우스를 이동하세요.

날씨 관측과 예보를 보려면 클릭하세요.

지도 변경 : 확대하려면 엑스 표시가 있는 녹색 버튼, 축소하려면 빼기 표시가 있는 녹색 버튼, 다음 페이지의 지도를 보려면 녹색 화살표를 클릭하세요.


METAR-TAF: